Time;durP1;ratioP1;P1;durP2;ratioP2;P2;SDS_P1;SDS_P2;PMS_P1;PMS_P2;Temp;Humidity;BMP_temperature;BMP_pressure;BME280_temperature;BME280_humidity;BME280_pressure;Samples;Min_cycle;Max_cycle;Signal;HPM_P1;HPM_P2
2021/07/18 00:00:15;;;;;;;8.25;4.47;;;;;;;-145.12;100.00;63763.75;341815;28;137146;-66
2021/07/18 00:01:26;;;;;;;10.10;4.57;;;;;;;-145.12;100.00;63763.75;341912;28;137966;-64
2021/07/18 00:02:39;;;;;;;8.82;4.47;;;;;;;-145.12;100.00;63763.75;340751;28;160986;-64
2021/07/18 00:03:50;;;;;;;9.05;4.25;;;;;;;-145.12;100.00;63763.75;341832;28;138190;-68
2021/07/18 00:05:21;;;;;;;8.27;4.25;;;;;;;-145.12;100.00;63763.75;341792;28;137245;-63
2021/07/18 00:06:32;;;;;;;9.80;4.20;;;;;;;-145.12;100.00;63763.75;343279;28;137027;-66
2021/07/18 00:07:43;;;;;;;8.60;4.25;;;;;;;-145.12;100.00;63763.75;343080;28;137095;-64
2021/07/18 00:08:55;;;;;;;10.35;4.45;;;;;;;-145.12;100.00;63763.75;341829;28;138573;-67
2021/07/18 00:10:07;;;;;;;7.47;4.38;;;;;;;-145.12;100.00;63763.75;341736;28;138069;-68
2021/07/18 00:11:18;;;;;;;8.80;4.43;;;;;;;-145.12;100.00;63763.75;343169;28;137680;-63
2021/07/18 00:12:30;;;;;;;10.50;4.53;;;;;;;-145.12;100.00;63763.75;342448;28;161671;-63
2021/07/18 00:13:42;;;;;;;11.40;4.40;;;;;;;-145.12;100.00;63763.75;343106;28;137528;-70
2021/07/18 00:14:53;;;;;;;9.35;4.47;;;;;;;-145.12;100.00;63763.75;343264;28;136548;-67
2021/07/18 00:16:06;;;;;;;9.38;4.55;;;;;;;-145.12;100.00;63763.75;343270;28;138595;-64
2021/07/18 00:17:17;;;;;;;9.23;4.55;;;;;;;-145.12;100.00;63763.75;343193;28;136801;-65
2021/07/18 00:18:28;;;;;;;8.38;4.28;;;;;;;-145.12;100.00;63763.75;343164;28;138322;-64
2021/07/18 00:19:39;;;;;;;10.35;4.70;;;;;;;-145.12;100.00;63763.75;341639;28;137424;-63
2021/07/18 00:20:50;;;;;;;8.35;4.60;;;;;;;-145.12;100.00;63763.75;343299;28;138039;-65
2021/07/18 00:22:02;;;;;;;11.57;4.50;;;;;;;-145.12;100.00;63763.75;342369;28;161246;-66
2021/07/18 00:23:14;;;;;;;11.38;4.35;;;;;;;-145.12;100.00;63763.75;343116;28;138857;-68
2021/07/18 00:24:26;;;;;;;9.02;4.20;;;;;;;-145.12;100.00;63763.75;343239;28;138835;-73
2021/07/18 00:25:37;;;;;;;10.80;4.72;;;;;;;-145.12;100.00;63763.75;343215;28;137434;-64
2021/07/18 00:26:48;;;;;;;9.90;4.60;;;;;;;-145.12;100.00;63763.75;342157;28;161330;-70
2021/07/18 00:28:01;;;;;;;7.85;4.30;;;;;;;-145.12;100.00;63763.75;345789;28;137409;-74
2021/07/18 00:29:12;;;;;;;9.38;4.25;;;;;;;-145.12;100.00;63763.75;345528;28;138933;-71
2021/07/18 00:30:23;;;;;;;8.40;4.25;;;;;;;-145.12;100.00;63763.75;343337;28;136476;-72
2021/07/18 00:31:36;;;;;;;10.55;4.00;;;;;;;-145.12;100.00;63763.75;343108;28;138279;-64
2021/07/18 00:32:48;;;;;;;8.02;4.35;;;;;;;-145.12;100.00;63763.75;343477;28;138260;-75
2021/07/18 00:34:00;;;;;;;8.82;4.40;;;;;;;-145.12;100.00;63763.75;343272;28;136530;-70
2021/07/18 00:35:11;;;;;;;9.77;4.10;;;;;;;-145.12;100.00;63763.75;343032;28;137383;-65
2021/07/18 00:36:22;;;;;;;10.30;4.45;;;;;;;-145.12;100.00;63763.75;343220;28;138391;-74
2021/07/18 00:37:35;;;;;;;10.75;4.50;;;;;;;-145.12;100.00;63763.75;343183;28;138475;-74
2021/07/18 00:38:47;;;;;;;8.85;4.57;;;;;;;-145.12;100.00;63763.75;343200;28;137797;-70
2021/07/18 00:39:58;;;;;;;9.90;4.50;;;;;;;-145.12;100.00;63763.75;343116;28;137128;-72
2021/07/18 00:41:09;;;;;;;11.15;4.65;;;;;;;-145.12;100.00;63763.75;341710;28;137176;-67
2021/07/18 00:42:20;;;;;;;8.98;4.75;;;;;;;-145.12;100.00;63763.75;341874;28;137286;-70
2021/07/18 00:43:32;;;;;;;11.80;4.38;;;;;;;-145.12;100.00;63763.75;341927;28;137477;-73
2021/07/18 00:44:44;;;;;;;10.75;4.68;;;;;;;-145.12;100.00;63763.75;341550;28;138630;-70
2021/07/18 00:45:56;;;;;;;9.98;4.43;;;;;;;-145.12;100.00;63763.75;341779;28;138192;-65
2021/07/18 00:47:08;;;;;;;11.98;4.70;;;;;;;-145.12;100.00;63763.75;341162;28;160136;-67
2021/07/18 00:48:21;;;;;;;9.88;4.28;;;;;;;-145.12;100.00;63763.75;341835;28;137226;-74
2021/07/18 00:49:32;;;;;;;8.98;4.75;;;;;;;-145.12;100.00;63763.75;341717;28;138553;-71
2021/07/18 00:50:44;;;;;;;8.93;4.40;;;;;;;-145.12;100.00;63763.75;343340;28;138444;-72
2021/07/18 00:51:56;;;;;;;10.65;5.10;;;;;;;-145.12;100.00;63763.75;341920;28;137186;-67
2021/07/18 00:53:08;;;;;;;7.57;4.28;;;;;;;-145.12;100.00;63763.75;341697;28;136548;-67
2021/07/18 00:54:19;;;;;;;11.02;4.30;;;;;;;-145.12;100.00;63763.75;342326;28;161219;-68
2021/07/18 00:55:31;;;;;;;10.40;4.32;;;;;;;-145.12;100.00;63763.75;343910;28;137184;-64
2021/07/18 00:56:43;;;;;;;10.23;4.75;;;;;;;-145.12;100.00;63763.75;344332;28;138293;-73
2021/07/18 00:57:55;;;;;;;10.10;4.63;;;;;;;-145.12;100.00;63763.75;344544;28;136606;-68
2021/07/18 00:59:06;;;;;;;9.55;4.40;;;;;;;-145.12;100.00;63763.75;344408;28;136134;-72
2021/07/18 01:00:17;;;;;;;12.18;4.95;;;;;;;-145.12;100.00;63763.75;344469;28;137182;-65
2021/07/18 01:01:29;;;;;;;12.15;4.65;;;;;;;-145.12;100.00;63763.75;344349;28;138549;-69
2021/07/18 01:02:41;;;;;;;10.63;5.00;;;;;;;-145.12;100.00;63763.75;342758;28;137457;-67
2021/07/18 01:03:52;;;;;;;9.40;4.65;;;;;;;-145.12;100.00;63763.75;343153;28;137310;-71
2021/07/18 01:05:04;;;;;;;10.45;4.47;;;;;;;-145.12;100.00;63763.75;343155;28;136583;-70
2021/07/18 01:06:16;;;;;;;10.88;5.15;;;;;;;-145.12;100.00;63763.75;343035;28;137810;-68
2021/07/18 01:07:27;;;;;;;11.63;4.85;;;;;;;-145.12;100.00;63763.75;342915;28;138465;-69
2021/07/18 01:08:38;;;;;;;11.02;4.82;;;;;;;-145.12;100.00;63763.75;342892;28;138439;-73
2021/07/18 01:09:49;;;;;;;10.10;4.75;;;;;;;-145.12;100.00;63763.75;340700;28;161510;-75
2021/07/18 01:11:04;;;;;;;10.10;4.55;;;;;;;-145.12;100.00;63763.75;341680;28;137035;-67
2021/07/18 01:12:16;;;;;;;10.05;4.63;;;;;;;-145.12;100.00;63763.75;344873;28;138374;-63
2021/07/18 01:13:28;;;;;;;8.50;4.38;;;;;;;-145.12;100.00;63763.75;343043;28;138487;-67
2021/07/18 01:14:39;;;;;;;9.77;4.90;;;;;;;-145.12;100.00;63763.75;343003;28;138352;-73
2021/07/18 01:15:50;;;;;;;8.32;4.63;;;;;;;-145.12;100.00;63763.75;343131;28;137248;-68
2021/07/18 01:17:01;;;;;;;10.68;5.00;;;;;;;-145.12;100.00;63763.75;343076;28;137680;-70
2021/07/18 01:18:14;;;;;;;9.52;4.70;;;;;;;-145.12;100.00;63763.75;342891;28;138623;-70
2021/07/18 01:19:28;;;;;;;9.30;4.50;;;;;;;-145.12;100.00;63763.75;343247;28;137085;-71
2021/07/18 01:20:40;;;;;;;10.20;4.75;;;;;;;-145.12;100.00;63763.75;343095;28;138479;-67
2021/07/18 01:21:59;;;;;;;12.52;5.03;;;;;;;-145.12;100.00;63763.75;343127;28;138499;-67
2021/07/18 01:23:11;;;;;;;11.18;4.90;;;;;;;-145.12;100.00;63763.75;342852;28;138318;-65
2021/07/18 01:24:23;;;;;;;10.60;4.93;;;;;;;-145.12;100.00;63763.75;343137;28;137063;-64
2021/07/18 01:25:35;;;;;;;11.05;4.57;;;;;;;-145.12;100.00;63763.75;343074;28;138474;-65
2021/07/18 01:26:46;;;;;;;8.27;4.70;;;;;;;-145.12;100.00;63763.75;342986;28;137802;-63
2021/07/18 01:27:58;;;;;;;11.98;5.10;;;;;;;-145.12;100.00;63763.75;344594;28;137332;-66
2021/07/18 01:29:10;;;;;;;10.73;5.18;;;;;;;-145.12;100.00;63763.75;344250;28;137873;-64
2021/07/18 01:30:21;;;;;;;9.93;5.28;;;;;;;-145.12;100.00;63763.75;343649;28;160164;-67
2021/07/18 01:31:33;;;;;;;10.82;4.75;;;;;;;-145.12;100.00;63763.75;343661;28;160362;-69
2021/07/18 01:32:44;;;;;;;12.63;4.93;;;;;;;-145.12;100.00;63763.75;344260;28;137166;-65
2021/07/18 01:33:55;;;;;;;9.05;4.97;;;;;;;-145.12;100.00;63763.75;343045;28;137238;-74
2021/07/18 01:35:07;;;;;;;11.10;5.43;;;;;;;-145.12;100.00;63763.75;342962;28;138522;-71
2021/07/18 01:36:18;;;;;;;9.60;5.10;;;;;;;-145.12;100.00;63763.75;342310;28;161306;-68
2021/07/18 01:37:29;;;;;;;10.68;5.00;;;;;;;-145.12;100.00;63763.75;343077;28;138388;-69
2021/07/18 01:38:41;;;;;;;10.75;4.95;;;;;;;-145.12;100.00;63763.75;342901;28;137270;-73
2021/07/18 01:39:52;;;;;;;9.07;4.90;;;;;;;-145.12;100.00;63763.75;343016;28;138086;-73
2021/07/18 01:41:04;;;;;;;10.32;5.07;;;;;;;-145.12;100.00;63763.75;343141;28;138312;-71
2021/07/18 01:42:15;;;;;;;9.90;5.00;;;;;;;-145.12;100.00;63763.75;342965;28;138593;-72
2021/07/18 01:43:28;;;;;;;8.80;4.88;;;;;;;-145.12;100.00;63763.75;342923;28;137824;-70
2021/07/18 01:44:41;;;;;;;9.75;5.10;;;;;;;-145.12;100.00;63763.75;343234;28;138520;-64
2021/07/18 01:45:52;;;;;;;15.10;5.12;;;;;;;-145.12;100.00;63763.75;342359;28;160885;-71
2021/07/18 01:47:03;;;;;;;10.50;5.10;;;;;;;-145.12;100.00;63763.75;344344;28;137204;-71
2021/07/18 01:48:15;;;;;;;9.93;5.03;;;;;;;-145.12;100.00;63763.75;342879;28;137814;-64
2021/07/18 01:49:26;;;;;;;8.93;5.15;;;;;;;-145.12;100.00;63763.75;343035;28;138249;-72
2021/07/18 01:50:38;;;;;;;9.82;4.85;;;;;;;-145.12;100.00;63763.75;343082;28;138341;-64
2021/07/18 01:51:49;;;;;;;9.32;4.90;;;;;;;-145.12;100.00;63763.75;343042;28;136492;-72
2021/07/18 01:53:01;;;;;;;9.38;5.00;;;;;;;-145.12;100.00;63763.75;343132;28;136132;-70
2021/07/18 01:54:12;;;;;;;10.10;5.38;;;;;;;-145.12;100.00;63763.75;342879;28;138509;-66
2021/07/18 01:55:24;;;;;;;11.02;5.00;;;;;;;-145.12;100.00;63763.75;344507;28;138560;-65
2021/07/18 01:56:35;;;;;;;10.23;5.43;;;;;;;-145.12;100.00;63763.75;343130;28;137830;-70
2021/07/18 01:57:47;;;;;;;9.65;4.90;;;;;;;-145.12;100.00;63763.75;342066;28;160376;-72
2021/07/18 01:58:59;;;;;;;10.93;5.22;;;;;;;-145.12;100.00;63763.75;343132;28;137100;-65
2021/07/18 02:00:12;;;;;;;9.77;4.70;;;;;;;-145.12;100.00;63763.75;342849;28;137980;-73
2021/07/18 02:01:27;;;;;;;9.63;4.55;;;;;;;-145.12;100.00;63763.75;343051;28;137200;-65
2021/07/18 02:02:42;;;;;;;8.80;4.80;;;;;;;-145.12;100.00;63763.75;342202;28;161711;-64
2021/07/18 02:03:55;;;;;;;9.95;4.70;;;;;;;-145.12;100.00;63763.75;343081;28;138324;-64
2021/07/18 02:05:07;;;;;;;10.42;5.24;;;;;;;-145.12;100.00;63763.75;340996;28;160209;-65
2021/07/18 02:06:21;;;;;;;9.88;4.50;;;;;;;-145.12;100.00;63763.75;341904;28;137339;-69
2021/07/18 02:07:32;;;;;;;10.63;4.85;;;;;;;-145.12;100.00;63763.75;341244;28;160195;-70
2021/07/18 02:08:44;;;;;;;7.63;4.72;;;;;;;-145.12;100.00;63763.75;341861;28;136417;-73
2021/07/18 02:09:56;;;;;;;8.95;4.90;;;;;;;-145.12;100.00;63763.75;341808;28;137014;-70
2021/07/18 02:11:08;;;;;;;10.60;4.75;;;;;;;-145.12;100.00;63763.75;341882;28;138050;-66
2021/07/18 02:12:20;;;;;;;10.45;4.90;;;;;;;-145.12;100.00;63763.75;341935;28;137012;-69
2021/07/18 02:13:32;;;;;;;11.73;5.00;;;;;;;-145.12;100.00;63763.75;341222;28;161220;-71
2021/07/18 02:14:44;;;;;;;10.05;5.20;;;;;;;-145.12;100.00;63763.75;341593;28;138293;-64
2021/07/18 02:15:57;;;;;;;7.75;4.63;;;;;;;-145.12;100.00;63763.75;341833;28;137082;-70
2021/07/18 02:17:08;;;;;;;8.80;4.47;;;;;;;-145.12;100.00;63763.75;341714;28;137800;-68
2021/07/18 02:18:19;;;;;;;9.80;4.80;;;;;;;-145.12;100.00;63763.75;342035;28;137978;-72
2021/07/18 02:19:31;;;;;;;10.57;4.82;;;;;;;-145.12;100.00;63763.75;341947;28;137051;-64
2021/07/18 02:20:42;;;;;;;12.43;5.07;;;;;;;-145.12;100.00;63763.75;341801;28;136453;-73
2021/07/18 02:21:54;;;;;;;11.73;4.82;;;;;;;-145.12;100.00;63763.75;343234;28;137256;-71
2021/07/18 02:23:07;;;;;;;9.66;5.12;;;;;;;-145.12;100.00;63763.75;342416;28;161437;-72
2021/07/18 02:24:19;;;;;;;11.63;5.40;;;;;;;-145.12;100.00;63763.75;343143;28;138425;-64
2021/07/18 02:25:30;;;;;;;8.52;4.97;;;;;;;-145.12;100.00;63763.75;343336;28;136984;-64
2021/07/18 02:26:41;;;;;;;8.43;4.93;;;;;;;-145.12;100.00;63763.75;341852;28;137392;-71
2021/07/18 02:27:53;;;;;;;8.98;4.88;;;;;;;-145.12;100.00;63763.75;341078;28;160072;-64
2021/07/18 02:29:04;;;;;;;12.00;5.03;;;;;;;-145.12;100.00;63763.75;341852;28;138414;-64
2021/07/18 02:30:17;;;;;;;11.45;4.93;;;;;;;-145.12;100.00;63763.75;341880;28;138803;-65
2021/07/18 02:31:28;;;;;;;10.32;4.95;;;;;;;-145.12;100.00;63763.75;341836;28;138256;-74
2021/07/18 02:32:41;;;;;;;11.25;4.97;;;;;;;-145.12;100.00;63763.75;341809;28;137847;-73
2021/07/18 02:33:53;;;;;;;10.88;4.75;;;;;;;-145.12;100.00;63763.75;341060;28;159465;-71
2021/07/18 02:35:05;;;;;;;9.07;4.88;;;;;;;-145.12;100.00;63763.75;341878;28;137694;-71
2021/07/18 02:36:17;;;;;;;9.50;5.00;;;;;;;-145.12;100.00;63763.75;343244;28;138156;-64
2021/07/18 02:37:29;;;;;;;10.88;5.07;;;;;;;-145.12;100.00;63763.75;343710;28;161085;-71
2021/07/18 02:38:41;;;;;;;9.55;5.07;;;;;;;-145.12;100.00;63763.75;344612;28;137003;-74
2021/07/18 02:39:52;;;;;;;12.43;4.85;;;;;;;-145.12;100.00;63763.75;344576;28;138224;-73
2021/07/18 02:41:03;;;;;;;10.32;4.93;;;;;;;-145.12;100.00;63763.75;344680;28;138505;-71
2021/07/18 02:42:14;;;;;;;8.20;4.85;;;;;;;-145.12;100.00;63763.75;344441;28;136956;-71
2021/07/18 02:43:26;;;;;;;8.65;5.03;;;;;;;-145.12;100.00;63763.75;344567;28;138511;-65
2021/07/18 02:44:38;;;;;;;9.90;5.18;;;;;;;-145.12;100.00;63763.75;344623;28;137977;-73
2021/07/18 02:45:49;;;;;;;10.02;5.35;;;;;;;-145.12;100.00;63763.75;344558;28;138382;-65
2021/07/18 02:47:00;;;;;;;11.00;4.90;;;;;;;-145.12;100.00;63763.75;344045;28;137820;-68
2021/07/18 02:48:13;;;;;;;8.65;4.78;;;;;;;-145.12;100.00;63763.75;343474;28;137085;-64
2021/07/18 02:49:24;;;;;;;9.94;4.92;;;;;;;-145.12;100.00;63763.75;343621;28;161409;-67
2021/07/18 02:50:35;;;;;;;8.75;4.85;;;;;;;-145.12;100.00;63763.75;344554;28;138589;-72
2021/07/18 02:51:47;;;;;;;9.40;5.00;;;;;;;-145.12;100.00;63763.75;344509;28;138267;-64
2021/07/18 02:52:58;;;;;;;12.98;5.50;;;;;;;-145.12;100.00;63763.75;344657;28;138341;-74
2021/07/18 02:54:09;;;;;;;8.80;4.97;;;;;;;-145.12;100.00;63763.75;344547;28;137828;-72
2021/07/18 02:55:20;;;;;;;12.85;5.15;;;;;;;-145.12;100.00;63763.75;344352;28;138137;-72
2021/07/18 02:56:32;;;;;;;10.40;5.40;;;;;;;-145.12;100.00;63763.75;346112;28;137401;-73
2021/07/18 02:57:43;;;;;;;9.95;4.93;;;;;;;-145.12;100.00;63763.75;345721;28;138349;-70
2021/07/18 02:58:54;;;;;;;8.52;4.75;;;;;;;-145.12;100.00;63763.75;344975;28;137108;-63
2021/07/18 03:00:13;;;;;;;10.38;5.03;;;;;;;-145.12;100.00;63763.75;345841;28;136993;-75
2021/07/18 03:01:24;;;;;;;10.10;4.85;;;;;;;-145.12;100.00;63763.75;346125;28;136995;-74
2021/07/18 03:02:35;;;;;;;8.90;5.18;;;;;;;-145.12;100.00;63763.75;345967;28;137371;-72
2021/07/18 03:03:48;;;;;;;11.70;5.40;;;;;;;-145.12;100.00;63763.75;345775;28;137444;-66
2021/07/18 03:04:59;;;;;;;10.57;5.22;;;;;;;-145.12;100.00;63763.75;345981;28;137002;-64
2021/07/18 03:06:10;;;;;;;11.32;5.53;;;;;;;-145.12;100.00;63763.75;345005;28;161390;-74
2021/07/18 03:07:21;;;;;;;12.00;5.32;;;;;;;-145.12;100.00;63763.75;345901;28;137853;-73
2021/07/18 03:08:34;;;;;;;10.60;5.45;;;;;;;-145.12;100.00;63763.75;345969;28;137022;-65
2021/07/18 03:09:45;;;;;;;8.30;4.80;;;;;;;-145.12;100.00;63763.75;344058;28;138156;-63
2021/07/18 03:10:56;;;;;;;9.77;4.90;;;;;;;-145.12;100.00;63763.75;345952;28;138874;-63
2021/07/18 03:12:08;;;;;;;9.90;5.22;;;;;;;-145.12;100.00;63763.75;345762;28;137088;-64
2021/07/18 03:13:19;;;;;;;8.88;4.95;;;;;;;-145.12;100.00;63763.75;345903;28;136959;-65
2021/07/18 03:14:31;;;;;;;8.45;5.38;;;;;;;-145.12;100.00;63763.75;345254;28;161373;-64
2021/07/18 03:15:42;;;;;;;11.02;5.00;;;;;;;-145.12;100.00;63763.75;345822;28;137692;-65
2021/07/18 03:16:53;;;;;;;11.13;5.30;;;;;;;-145.12;100.00;63763.75;345767;28;137300;-66
2021/07/18 03:18:06;;;;;;;10.10;4.95;;;;;;;-145.12;100.00;63763.75;345897;28;138666;-66
2021/07/18 03:19:17;;;;;;;10.43;5.43;;;;;;;-145.12;100.00;63763.75;344587;28;137528;-64
2021/07/18 03:20:29;;;;;;;9.07;5.22;;;;;;;-145.12;100.00;63763.75;344590;28;137695;-63
2021/07/18 03:21:40;;;;;;;9.80;4.72;;;;;;;-145.12;100.00;63763.75;344654;28;136473;-65
2021/07/18 03:22:51;;;;;;;8.93;5.15;;;;;;;-145.12;100.00;63763.75;344398;28;137833;-65
2021/07/18 03:24:03;;;;;;;9.43;5.10;;;;;;;-145.12;100.00;63763.75;344663;28;137937;-64
2021/07/18 03:25:15;;;;;;;9.80;5.50;;;;;;;-145.12;100.00;63763.75;344494;28;137154;-73
2021/07/18 03:26:26;;;;;;;11.02;5.30;;;;;;;-145.12;100.00;63763.75;344555;28;137181;-69
2021/07/18 03:27:38;;;;;;;10.50;5.25;;;;;;;-145.12;100.00;63763.75;343855;28;160198;-69
2021/07/18 03:28:49;;;;;;;10.23;5.35;;;;;;;-145.12;100.00;63763.75;344577;28;138553;-73
2021/07/18 03:30:00;;;;;;;10.57;5.38;;;;;;;-145.12;100.00;63763.75;344488;28;137582;-70
2021/07/18 03:31:13;;;;;;;9.75;5.10;;;;;;;-145.12;100.00;63763.75;343146;28;138311;-65
2021/07/18 03:32:25;;;;;;;9.05;5.15;;;;;;;-145.12;100.00;63763.75;343212;28;137093;-65
2021/07/18 03:33:36;;;;;;;10.20;5.30;;;;;;;-145.12;100.00;63763.75;343131;28;136474;-68
2021/07/18 03:34:47;;;;;;;9.77;5.47;;;;;;;-145.12;100.00;63763.75;343135;28;137451;-65
2021/07/18 03:35:59;;;;;;;9.80;5.38;;;;;;;-145.12;100.00;63763.75;343150;28;137882;-63
2021/07/18 03:37:10;;;;;;;9.85;5.47;;;;;;;-145.12;100.00;63763.75;343047;28;136478;-68
2021/07/18 03:38:21;;;;;;;11.50;5.47;;;;;;;-145.12;100.00;63763.75;342458;28;161139;-73
2021/07/18 03:39:32;;;;;;;12.07;5.25;;;;;;;-145.12;100.00;63763.75;343241;28;138137;-64
2021/07/18 03:40:44;;;;;;;9.38;5.30;;;;;;;-145.12;100.00;63763.75;343043;28;137013;-64
2021/07/18 03:41:55;;;;;;;9.95;5.40;;;;;;;-145.12;100.00;63763.75;343055;28;137811;-63
2021/07/18 03:43:07;;;;;;;12.60;5.72;;;;;;;-145.12;100.00;63763.75;343125;28;137838;-66
2021/07/18 03:44:18;;;;;;;10.95;5.13;;;;;;;-145.12;100.00;63763.75;343129;28;137979;-73
2021/07/18 03:45:29;;;;;;;11.63;5.22;;;;;;;-145.12;100.00;63763.75;345809;28;138264;-73
2021/07/18 03:46:40;;;;;;;7.68;4.63;;;;;;;-145.12;100.00;63763.75;345838;28;137963;-72
2021/07/18 03:47:52;;;;;;;10.13;5.43;;;;;;;-145.12;100.00;63763.75;345107;28;161565;-64
2021/07/18 03:49:03;;;;;;;10.65;5.15;;;;;;;-145.12;100.00;63763.75;345949;28;137070;-74
2021/07/18 03:50:15;;;;;;;10.07;5.32;;;;;;;-145.12;100.00;63763.75;345735;28;137457;-73
2021/07/18 03:51:26;;;;;;;11.02;5.28;;;;;;;-145.12;100.00;63763.75;345524;28;137273;-64
2021/07/18 03:52:37;;;;;;;9.88;5.30;;;;;;;-145.12;100.00;63763.75;344546;28;138082;-70
2021/07/18 03:53:52;;;;;;;8.32;5.05;;;;;;;-145.12;100.00;63763.75;343798;28;161547;-64
2021/07/18 03:55:03;;;;;;;9.52;4.90;;;;;;;-145.12;100.00;63763.75;344378;28;137351;-67
2021/07/18 03:56:14;;;;;;;10.10;5.22;;;;;;;-145.12;100.00;63763.75;343116;28;136697;-64
2021/07/18 03:57:26;;;;;;;9.60;5.20;;;;;;;-145.12;100.00;63763.75;343261;28;137422;-66
2021/07/18 03:58:37;;;;;;;8.07;4.97;;;;;;;-145.12;100.00;63763.75;342303;28;161174;-64
2021/07/18 03:59:50;;;;;;;8.43;5.13;;;;;;;-145.12;100.00;63763.75;343085;28;137885;-70
2021/07/18 04:01:09;;;;;;;9.93;5.40;;;;;;;-145.12;100.00;63763.75;343204;28;137952;-69
2021/07/18 04:02:20;;;;;;;8.77;5.47;;;;;;;-145.12;100.00;63763.75;341071;28;160338;-66
2021/07/18 04:03:32;;;;;;;10.25;5.35;;;;;;;-145.12;100.00;63763.75;340347;28;138367;-64
2021/07/18 04:04:43;;;;;;;8.60;5.30;;;;;;;-145.12;100.00;63763.75;341768;28;138138;-71
2021/07/18 04:05:54;;;;;;;10.15;5.20;;;;;;;-145.12;100.00;63763.75;341842;28;136999;-70
2021/07/18 04:07:05;;;;;;;8.28;4.84;;;;;;;-145.12;100.00;63763.75;341061;28;161742;-65
2021/07/18 04:08:16;;;;;;;8.25;5.10;;;;;;;-145.12;100.00;63763.75;341669;28;137798;-71
2021/07/18 04:09:27;;;;;;;7.65;4.90;;;;;;;-145.12;100.00;63763.75;341155;28;159934;-71
2021/07/18 04:10:41;;;;;;;7.82;5.10;;;;;;;-145.12;100.00;63763.75;341834;28;138324;-68
2021/07/18 04:11:52;;;;;;;9.25;5.10;;;;;;;-145.12;100.00;63763.75;343173;28;137393;-64
2021/07/18 04:13:03;;;;;;;10.10;5.00;;;;;;;-145.12;100.00;63763.75;342416;28;160061;-64
2021/07/18 04:14:14;;;;;;;9.70;5.15;;;;;;;-145.12;100.00;63763.75;341734;28;138369;-69
2021/07/18 04:15:25;;;;;;;8.60;5.10;;;;;;;-145.12;100.00;63763.75;343171;28;137997;-68
2021/07/18 04:16:36;;;;;;;9.43;5.00;;;;;;;-145.12;100.00;63763.75;343060;28;138341;-64
2021/07/18 04:17:47;;;;;;;9.55;4.97;;;;;;;-145.12;100.00;63763.75;343078;28;137362;-65
2021/07/18 04:19:08;;;;;;;10.55;5.22;;;;;;;-145.12;100.00;63763.75;343048;28;137232;-66
2021/07/18 04:20:20;;;;;;;9.35;4.72;;;;;;;-145.12;100.00;63763.75;342835;28;137537;-73
2021/07/18 04:21:31;;;;;;;9.60;5.32;;;;;;;-145.12;100.00;63763.75;343350;28;137140;-70
2021/07/18 04:22:42;;;;;;;9.35;4.93;;;;;;;-145.12;100.00;63763.75;343013;28;138367;-66
2021/07/18 04:23:53;;;;;;;9.63;5.40;;;;;;;-145.12;100.00;63763.75;343087;28;138339;-67
2021/07/18 04:25:04;;;;;;;9.63;5.20;;;;;;;-145.12;100.00;63763.75;341783;28;137772;-64
2021/07/18 04:26:15;;;;;;;8.20;5.13;;;;;;;-145.12;100.00;63763.75;339481;28;161370;-66
2021/07/18 04:27:27;;;;;;;7.85;5.13;;;;;;;-145.12;100.00;63763.75;340187;28;138421;-69
2021/07/18 04:28:38;;;;;;;10.00;5.20;;;;;;;-145.12;100.00;63763.75;340190;28;138151;-68
2021/07/18 04:29:49;;;;;;;7.75;4.72;;;;;;;-145.12;100.00;63763.75;340432;28;136407;-64
2021/07/18 04:31:02;;;;;;;9.32;5.20;;;;;;;-145.12;100.00;63763.75;341648;28;137350;-69
2021/07/18 04:32:13;;;;;;;9.80;4.82;;;;;;;-145.12;100.00;63763.75;340991;28;161164;-73
2021/07/18 04:33:24;;;;;;;8.18;5.00;;;;;;;-145.12;100.00;63763.75;341703;28;137861;-67
2021/07/18 04:34:35;;;;;;;9.75;5.10;;;;;;;-145.12;100.00;63763.75;341809;28;137262;-71
2021/07/18 04:35:46;;;;;;;11.18;5.18;;;;;;;-145.12;100.00;63763.75;341710;28;138059;-67
2021/07/18 04:36:58;;;;;;;8.55;5.35;;;;;;;-145.12;100.00;63763.75;341057;28;161426;-67
2021/07/18 04:38:10;;;;;;;9.82;4.93;;;;;;;-145.12;100.00;63763.75;341527;28;138040;-68
2021/07/18 04:39:21;;;;;;;8.75;4.82;;;;;;;-145.12;100.00;63763.75;344487;28;137998;-65
2021/07/18 04:40:33;;;;;;;8.63;4.90;;;;;;;-145.12;100.00;63763.75;344438;28;137964;-68
2021/07/18 04:41:44;;;;;;;7.94;4.90;;;;;;;-145.12;100.00;63763.75;342164;28;160312;-67
2021/07/18 04:42:55;;;;;;;9.18;5.20;;;;;;;-145.12;100.00;63763.75;341756;28;138190;-66
2021/07/18 04:44:07;;;;;;;8.43;5.18;;;;;;;-145.12;100.00;63763.75;341779;28;138506;-66
2021/07/18 04:45:18;;;;;;;10.40;5.45;;;;;;;-145.12;100.00;63763.75;340804;28;138311;-65
2021/07/18 04:46:29;;;;;;;7.63;4.82;;;;;;;-145.12;100.00;63763.75;341736;28;137009;-70
2021/07/18 04:47:47;;;;;;;8.73;5.22;;;;;;;-145.12;100.00;63763.75;341630;28;136521;-65
2021/07/18 04:48:58;;;;;;;8.32;5.20;;;;;;;-145.12;100.00;63763.75;341039;28;160917;-66
2021/07/18 04:50:09;;;;;;;11.75;5.30;;;;;;;-145.12;100.00;63763.75;341634;28;137050;-68
2021/07/18 04:51:21;;;;;;;9.43;5.13;;;;;;;-145.12;100.00;63763.75;340970;28;160856;-72
2021/07/18 04:52:32;;;;;;;12.27;5.72;;;;;;;-145.12;100.00;63763.75;341653;28;137242;-64
2021/07/18 04:53:44;;;;;;;11.93;6.05;;;;;;;-145.12;100.00;63763.75;341482;28;137814;-64
2021/07/18 04:54:55;;;;;;;8.48;5.28;;;;;;;-145.12;100.00;63763.75;341832;28;138536;-65
2021/07/18 04:56:07;;;;;;;8.30;4.72;;;;;;;-145.12;100.00;63763.75;342030;28;138105;-65
2021/07/18 04:57:18;;;;;;;9.45;4.93;;;;;;;-145.12;100.00;63763.75;341705;28;137170;-66
2021/07/18 04:58:29;;;;;;;11.00;5.18;;;;;;;-145.12;100.00;63763.75;341657;28;137351;-67
2021/07/18 04:59:40;;;;;;;12.93;5.10;;;;;;;-145.12;100.00;63763.75;341550;28;138729;-68
2021/07/18 05:00:51;;;;;;;9.20;5.50;;;;;;;-145.12;100.00;63763.75;341851;28;137044;-64
2021/07/18 05:02:02;;;;;;;9.30;4.95;;;;;;;-145.12;100.00;63763.75;341658;28;137730;-64
2021/07/18 05:03:14;;;;;;;8.95;4.78;;;;;;;-145.12;100.00;63763.75;340736;28;160107;-65
2021/07/18 05:04:26;;;;;;;10.65;4.85;;;;;;;-145.12;100.00;63763.75;341730;28;138251;-64
2021/07/18 05:05:37;;;;;;;8.35;5.10;;;;;;;-145.12;100.00;63763.75;343159;28;137799;-64
2021/07/18 05:06:48;;;;;;;8.90;4.93;;;;;;;-145.12;100.00;63763.75;342998;28;137208;-63
2021/07/18 05:08:02;;;;;;;11.30;5.10;;;;;;;-145.12;100.00;63763.75;342052;28;137816;-64
2021/07/18 05:09:14;;;;;;;7.88;4.60;;;;;;;-145.12;100.00;63763.75;344370;28;137348;-63
2021/07/18 05:10:25;;;;;;;8.30;4.90;;;;;;;-145.12;100.00;63763.75;343681;28;161331;-63
2021/07/18 05:11:37;;;;;;;9.55;5.10;;;;;;;-145.12;100.00;63763.75;344065;28;138268;-65
2021/07/18 05:12:49;;;;;;;10.60;4.78;;;;;;;-145.12;100.00;63763.75;344422;28;137059;-64
2021/07/18 05:14:00;;;;;;;8.07;5.20;;;;;;;-145.12;100.00;63763.75;344486;28;137376;-68
2021/07/18 05:15:11;;;;;;;7.60;4.68;;;;;;;-145.12;100.00;63763.75;344271;28;137011;-64
2021/07/18 05:16:23;;;;;;;9.25;4.88;;;;;;;-145.12;100.00;63763.75;344229;28;138577;-63
2021/07/18 05:17:34;;;;;;;10.18;5.07;;;;;;;-145.12;100.00;63763.75;343349;28;137821;-65
2021/07/18 05:18:46;;;;;;;10.15;4.70;;;;;;;-145.12;100.00;63763.75;344442;28;137222;-64
2021/07/18 05:19:58;;;;;;;8.93;5.03;;;;;;;-145.12;100.00;63763.75;344298;28;137061;-64
2021/07/18 05:21:10;;;;;;;9.38;4.57;;;;;;;-145.12;100.00;63763.75;344443;28;137087;-65
2021/07/18 05:22:21;;;;;;;7.90;4.90;;;;;;;-145.12;100.00;63763.75;344594;28;138090;-64
2021/07/18 05:23:32;;;;;;;8.60;4.60;;;;;;;-145.12;100.00;63763.75;344512;28;137315;-64
2021/07/18 05:24:44;;;;;;;8.45;4.70;;;;;;;-145.12;100.00;63763.75;344411;28;138600;-65